Time,TemperatureF,DewpointF,PressureIn,WindDirection,WindDirectionDegrees,WindSpeedMPH,WindSpeedGustMPH,Humidity,HourlyPrecipIn,Conditions,Clouds,dailyrainin,SoftwareType,DateUTC
2013-06-12 00:00:00,70.5,66.8,29.89,WSW,255,2.0,2.0,88,0.00,,,0.00,Wunderground v.1.15,2013-06-12 04:00:00,
2013-06-12 00:05:00,70.5,66.8,29.89,West,270,2.0,2.0,88,0.00,,,0.00,Wunderground v.1.15,2013-06-12 04:05:00,
2013-06-12 00:10:00,70.4,66.7,29.89,West,276,2.0,3.0,88,0.00,,,0.00,Wunderground v.1.15,2013-06-12 04:10:00,
2013-06-12 00:15:00,70.3,66.9,29.90,West,277,2.0,3.0,89,0.00,,,0.00,Wunderground v.1.15,2013-06-12 04:15:00,
2013-06-12 00:20:00,70.1,66.7,29.89,West,277,1.0,1.0,89,0.00,,,0.00,Wunderground v.1.15,2013-06-12 04:20:00,
2013-06-12 00:25:00,69.9,66.8,29.89,West,276,2.0,3.0,90,0.00,,,0.00,Wunderground v.1.15,2013-06-12 04:25:00,
2013-06-12 00:30:00,69.8,66.7,29.89,West,273,3.0,3.0,90,0.00,,,0.00,Wunderground v.1.15,2013-06-12 04:30:00,
2013-06-12 00:35:00,69.7,67.0,29.89,West,277,3.0,4.0,91,0.00,,,0.00,Wunderground v.1.15,2013-06-12 04:35:00,
2013-06-12 00:40:00,69.8,67.1,29.89,West,264,4.0,5.0,91,0.00,,,0.00,Wunderground v.1.15,2013-06-12 04:40:00,
2013-06-12 00:45:00,69.9,67.2,29.88,West,276,4.0,5.0,91,0.00,,,0.00,Wunderground v.1.15,2013-06-12 04:45:00,
2013-06-12 00:50:00,70.0,67.3,29.89,WNW,290,5.0,5.0,91,0.00,,,0.00,Wunderground v.1.15,2013-06-12 04:50:00,
2013-06-12 01:00:00,70.2,67.4,29.88,West,274,4.0,4.0,91,0.00,,,0.00,Wunderground v.1.15,2013-06-12 05:00:00,
2013-06-12 01:10:00,70.3,67.5,29.88,WNW,282,3.0,3.0,91,0.00,,,0.00,Wunderground v.1.15,2013-06-12 05:10:00,
2013-06-12 01:15:00,70.3,67.5,29.88,West,259,3.0,5.0,91,0.00,,,0.00,Wunderground v.1.15,2013-06-12 05:15:00,
2013-06-12 01:20:00,70.4,67.6,29.87,West,262,5.0,5.0,91,0.00,,,0.00,Wunderground v.1.15,2013-06-12 05:20:00,
2013-06-12 01:25:00,70.4,67.6,29.88,WSW,248,5.0,5.0,91,0.00,,,0.00,Wunderground v.1.15,2013-06-12 05:25:00,
2013-06-12 01:30:00,70.4,67.6,29.88,WSW,244,4.0,4.0,91,0.00,,,0.00,Wunderground v.1.15,2013-06-12 05:30:00,
2013-06-12 01:35:00,70.4,67.6,29.89,West,266,3.0,4.0,91,0.00,,,0.00,Wunderground v.1.15,2013-06-12 05:35:00,
2013-06-12 01:40:00,70.4,67.6,29.89,West,267,1.0,1.0,91,0.00,,,0.00,Wunderground v.1.15,2013-06-12 05:40:00,
2013-06-12 01:45:00,70.1,67.3,29.88,West,280,1.0,2.0,91,0.00,,,0.00,Wunderground v.1.15,2013-06-12 05:45:00,
2013-06-12 01:55:00,69.8,67.4,29.87,West,270,4.0,4.0,92,0.00,,,0.00,Wunderground v.1.15,2013-06-12 05:55:00,
2013-06-12 02:00:00,70.2,67.8,29.87,West,267,5.0,5.0,92,0.00,,,0.00,Wunderground v.1.15,2013-06-12 06:00:00,
2013-06-12 02:10:00,70.5,68.1,29.86,West,263,6.0,6.0,92,0.00,,,0.00,Wunderground v.1.15,2013-06-12 06:10:00,
2013-06-12 02:15:00,70.6,67.8,29.87,West,280,5.0,6.0,91,0.00,,,0.00,Wunderground v.1.15,2013-06-12 06:15:00,
2013-06-12 02:20:00,70.5,67.7,29.87,NW,304,4.0,4.0,91,0.00,,,0.00,Wunderground v.1.15,2013-06-12 06:20:00,
2013-06-12 02:25:00,70.4,67.6,29.88,NW,316,3.0,4.0,91,0.00,,,0.00,Wunderground v.1.15,2013-06-12 06:25:00,
2013-06-12 02:30:00,70.5,67.7,29.88,NW,312,3.0,3.0,91,0.00,,,0.00,Wunderground v.1.15,2013-06-12 06:30:00,
2013-06-12 02:35:00,70.4,67.6,29.88,WNW,301,3.0,4.0,91,0.00,,,0.00,Wunderground v.1.15,2013-06-12 06:35:00,
2013-06-12 02:45:00,70.1,67.7,29.87,WNW,298,3.0,4.0,92,0.00,,,0.00,Wunderground v.1.15,2013-06-12 06:45:00,
2013-06-12 02:55:00,70.0,67.6,29.87,West,280,3.0,4.0,92,0.00,,,0.00,Wunderground v.1.15,2013-06-12 06:55:00,
2013-06-12 03:00:00,69.9,67.8,29.87,WNW,294,4.0,6.0,93,0.00,,,0.00,Wunderground v.1.15,2013-06-12 07:00:00,
2013-06-12 03:10:00,69.9,67.8,29.86,WNW,287,4.0,4.0,93,0.00,,,0.00,Wunderground v.1.15,2013-06-12 07:10:00,
2013-06-12 03:15:00,69.9,67.8,29.87,WNW,285,4.0,6.0,93,0.00,,,0.00,Wunderground v.1.15,2013-06-12 07:15:00,
2013-06-12 03:20:00,69.8,67.7,29.88,WNW,293,4.0,4.0,93,0.00,,,0.00,Wunderground v.1.15,2013-06-12 07:20:00,
2013-06-12 03:30:00,70.0,67.9,29.88,NW,315,4.0,4.0,93,0.00,,,0.00,Wunderground v.1.15,2013-06-12 07:30:00,
2013-06-12 03:35:00,70.0,67.9,29.88,WNW,301,4.0,8.0,93,0.00,,,0.00,Wunderground v.1.15,2013-06-12 07:35:00,
2013-06-12 03:45:00,69.9,67.8,29.88,WNW,291,4.0,5.0,93,0.00,,,0.00,Wunderground v.1.15,2013-06-12 07:45:00,
2013-06-12 03:50:00,70.0,67.9,29.88,NW,311,4.0,8.0,93,0.00,,,0.00,Wunderground v.1.15,2013-06-12 07:50:00,
2013-06-12 03:55:00,70.0,67.9,29.89,ENE,63,5.0,8.0,93,0.00,,,0.00,Wunderground v.1.15,2013-06-12 07:55:00,
2013-06-12 04:05:00,69.4,67.3,29.89,ENE,78,2.0,8.0,93,0.00,,,0.00,Wunderground v.1.15,2013-06-12 08:05:00,
2013-06-12 04:10:00,69.3,67.5,29.90,ENE,75,2.0,2.0,94,0.00,,,0.00,Wunderground v.1.15,2013-06-12 08:10:00,
2013-06-12 04:15:00,69.2,67.4,29.89,ENE,68,2.0,3.0,94,0.00,,,0.00,Wunderground v.1.15,2013-06-12 08:15:00,
2013-06-12 04:20:00,69.2,67.4,29.90,ENE,60,1.0,8.0,94,0.00,,,0.00,Wunderground v.1.15,2013-06-12 08:20:00,
2013-06-12 04:25:00,69.1,67.3,29.90,ENE,61,1.0,8.0,94,0.00,,,0.00,Wunderground v.1.15,2013-06-12 08:25:00,
2013-06-12 04:30:00,68.9,67.4,29.90,ENE,78,1.0,8.0,95,0.00,,,0.00,Wunderground v.1.15,2013-06-12 08:30:00,
2013-06-12 04:35:00,68.7,67.2,29.90,ENE,75,1.0,8.0,95,0.00,,,0.00,Wunderground v.1.15,2013-06-12 08:35:00,
2013-06-12 04:45:00,68.3,66.8,29.90,East,79,2.0,8.0,95,0.00,,,0.00,Wunderground v.1.15,2013-06-12 08:45:00,
2013-06-12 04:50:00,68.0,66.8,29.90,East,87,1.0,8.0,96,0.00,,,0.00,Wunderground v.1.15,2013-06-12 08:50:00,
2013-06-12 04:55:00,67.9,66.7,29.91,East,89,2.0,8.0,96,0.00,,,0.00,Wunderground v.1.15,2013-06-12 08:55:00,
2013-06-12 05:00:00,67.8,66.9,29.90,East,89,2.0,8.0,97,0.00,,,0.00,Wunderground v.1.15,2013-06-12 09:00:00,
2013-06-12 05:10:00,67.7,66.8,29.90,East,91,2.0,2.0,97,0.00,,,0.00,Wunderground v.1.15,2013-06-12 09:10:00,
2013-06-12 05:15:00,67.7,66.8,29.90,East,91,1.0,8.0,97,0.00,,,0.00,Wunderground v.1.15,2013-06-12 09:15:00,
2013-06-12 05:20:00,67.7,66.8,29.91,East,91,0.0,8.0,97,0.00,,,0.00,Wunderground v.1.15,2013-06-12 09:20:00,
2013-06-12 05:25:00,67.7,66.8,29.90,East,91,0.0,8.0,97,0.00,,,0.00,Wunderground v.1.15,2013-06-12 09:25:00,
2013-06-12 05:35:00,67.9,67.3,29.90,East,91,1.0,8.0,98,0.00,,,0.00,Wunderground v.1.15,2013-06-12 09:35:00,
2013-06-12 05:45:00,67.7,66.8,29.89,South,177,1.0,8.0,97,0.00,,,0.00,Wunderground v.1.15,2013-06-12 09:45:00,
2013-06-12 05:50:00,67.6,67.0,29.88,South,176,2.0,2.0,98,0.00,,,0.00,Wunderground v.1.15,2013-06-12 09:50:00,
2013-06-12 05:55:00,67.8,67.2,29.88,South,177,1.0,8.0,98,0.00,,,0.00,Wunderground v.1.15,2013-06-12 09:55:00,
2013-06-12 06:00:00,67.9,67.3,29.88,South,177,2.0,2.0,98,0.00,,,0.00,Wunderground v.1.15,2013-06-12 10:00:00,
2013-06-12 06:05:00,67.9,67.0,29.88,South,177,2.0,8.0,97,0.00,,,0.00,Wunderground v.1.15,2013-06-12 10:05:00,
2013-06-12 06:10:00,67.9,67.3,29.88,South,177,2.0,8.0,98,0.00,,,0.00,Wunderground v.1.15,2013-06-12 10:10:00,
2013-06-12 06:20:00,67.9,67.0,29.88,West,259,3.0,8.0,97,0.00,,,0.00,Wunderground v.1.15,2013-06-12 10:20:00,
2013-06-12 06:25:00,67.9,67.0,29.88,West,259,3.0,8.0,97,0.00,,,0.00,Wunderground v.1.15,2013-06-12 10:25:00,
2013-06-12 06:30:00,67.8,66.9,29.88,WSW,246,3.0,8.0,97,0.00,,,0.00,Wunderground v.1.15,2013-06-12 10:30:00,
2013-06-12 06:40:00,67.9,67.3,29.88,WSW,245,3.0,8.0,98,0.00,,,0.00,Wunderground v.1.15,2013-06-12 10:40:00,
2013-06-12 06:45:00,67.8,66.9,29.88,WSW,250,4.0,8.0,97,0.00,,,0.00,Wunderground v.1.15,2013-06-12 10:45:00,
2013-06-12 06:55:00,67.8,67.2,29.88,WSW,245,4.0,8.0,98,0.00,,,0.00,Wunderground v.1.15,2013-06-12 10:55:00,
2013-06-12 07:00:00,67.9,67.0,29.87,WSW,238,4.0,4.0,97,0.00,,,0.00,Wunderground v.1.15,2013-06-12 11:00:00,
2013-06-12 07:10:00,68.3,67.7,29.88,West,262,2.0,3.0,98,0.00,,,0.00,Wunderground v.1.15,2013-06-12 11:10:00,
2013-06-12 07:15:00,68.5,67.6,29.88,West,263,2.0,3.0,97,0.00,,,0.00,Wunderground v.1.15,2013-06-12 11:15:00,
2013-06-12 07:25:00,68.8,67.9,29.89,West,264,1.0,2.0,97,0.00,,,0.00,Wunderground v.1.15,2013-06-12 11:25:00,
2013-06-12 07:30:00,69.0,68.1,29.89,West,264,0.0,0.0,97,0.00,,,0.00,Wunderground v.1.15,2013-06-12 11:30:00,
2013-06-12 07:35:00,69.0,68.1,29.90,West,266,1.0,2.0,97,0.00,,,0.00,Wunderground v.1.15,2013-06-12 11:35:00,
2013-06-12 07:45:00,69.9,69.0,29.89,West,265,0.0,5.0,97,0.00,,,0.00,Wunderground v.1.15,2013-06-12 11:45:00,
2013-06-12 07:50:00,70.1,68.9,29.89,NW,310,1.0,5.0,96,0.00,,,0.00,Wunderground v.1.15,2013-06-12 11:50:00,
2013-06-12 08:00:00,71.3,69.8,29.90,East,95,0.0,5.0,95,0.00,,,0.00,Wunderground v.1.15,2013-06-12 12:00:00,
2013-06-12 08:05:00,71.7,70.2,29.90,East,95,0.0,5.0,95,0.00,,,0.00,Wunderground v.1.15,2013-06-12 12:05:00,
2013-06-12 08:10:00,72.8,71.0,29.91,East,94,0.0,5.0,94,0.00,,,0.00,Wunderground v.1.15,2013-06-12 12:10:00,
2013-06-12 08:15:00,74.2,71.7,29.92,East,94,0.0,5.0,92,0.00,,,0.00,Wunderground v.1.15,2013-06-12 12:15:00,
2013-06-12 08:20:00,74.8,71.3,29.93,East,91,0.0,5.0,89,0.00,,,0.00,Wunderground v.1.15,2013-06-12 12:20:00,
2013-06-12 08:25:00,74.7,70.6,29.92,NE,53,1.0,5.0,87,0.00,,,0.00,Wunderground v.1.15,2013-06-12 12:25:00,
2013-06-12 08:35:00,74.0,71.2,29.92,NNE,13,2.0,5.0,91,0.00,,,0.00,Wunderground v.1.15,2013-06-12 12:35:00,
2013-06-12 08:40:00,74.3,70.5,29.92,NW,316,1.0,5.0,88,0.00,,,0.00,Wunderground v.1.15,2013-06-12 12:40:00,
2013-06-12 08:50:00,73.7,70.3,29.91,NNW,336,2.0,2.0,89,0.00,,,0.00,Wunderground v.1.15,2013-06-12 12:50:00,
2013-06-12 08:55:00,74.0,70.9,29.91,NNW,338,1.0,5.0,90,0.00,,,0.00,Wunderground v.1.15,2013-06-12 12:55:00,
2013-06-12 09:00:00,74.7,70.9,29.91,North,360,0.0,5.0,88,0.00,,,0.00,Wunderground v.1.15,2013-06-12 13:00:00,
2013-06-12 09:10:00,74.9,70.8,29.91,North,8,1.0,1.0,87,0.00,,,0.00,Wunderground v.1.15,2013-06-12 13:10:00,
2013-06-12 09:15:00,75.1,71.3,29.92,NNE,13,0.0,5.0,88,0.00,,,0.00,Wunderground v.1.15,2013-06-12 13:15:00,
2013-06-12 09:20:00,75.1,71.0,29.92,East,84,1.0,5.0,87,0.00,,,0.00,Wunderground v.1.15,2013-06-12 13:20:00,
2013-06-12 09:25:00,74.9,71.1,29.92,East,84,0.0,5.0,88,0.00,,,0.00,Wunderground v.1.15,2013-06-12 13:25:00,
2013-06-12 09:30:00,75.1,71.0,29.92,East,84,0.0,5.0,87,0.00,,,0.00,Wunderground v.1.15,2013-06-12 13:30:00,
2013-06-12 09:40:00,75.9,71.4,29.92,East,82,1.0,1.0,86,0.00,,,0.00,Wunderground v.1.15,2013-06-12 13:40:00,
2013-06-12 09:45:00,76.1,71.3,29.92,East,82,0.0,5.0,85,0.00,,,0.00,Wunderground v.1.15,2013-06-12 13:45:00,
2013-06-12 09:55:00,75.2,71.1,29.93,NNE,18,2.0,5.0,87,0.00,,,0.00,Wunderground v.1.15,2013-06-12 13:55:00,
2013-06-12 10:00:00,74.7,71.2,29.92,NNE,20,3.0,3.0,89,0.00,,,0.00,Wunderground v.1.15,2013-06-12 14:00:00,
2013-06-12 10:10:00,74.0,71.2,29.92,WNW,283,4.0,4.0,91,0.00,,,0.00,Wunderground v.1.15,2013-06-12 14:10:00,
2013-06-12 10:15:00,74.2,71.7,29.92,NNW,332,4.0,5.0,92,0.00,,,0.00,Wunderground v.1.15,2013-06-12 14:15:00,
2013-06-12 10:20:00,74.3,71.5,29.92,WNW,298,4.0,4.0,91,0.00,,,0.00,Wunderground v.1.15,2013-06-12 14:20:00,
2013-06-12 10:25:00,74.2,71.4,29.90,WNW,298,2.0,4.0,91,0.00,,,0.00,Wunderground v.1.15,2013-06-12 14:25:00,
2013-06-12 10:30:00,74.1,71.0,29.88,WSW,246,3.0,9.0,90,0.00,,,0.00,Wunderground v.1.15,2013-06-12 14:30:00,
2013-06-12 10:35:00,74.1,71.6,29.87,WSW,255,6.0,13.0,92,0.00,,,0.00,Wunderground v.1.15,2013-06-12 14:35:00,
2013-06-12 10:45:00,74.1,71.6,29.89,WNW,282,10.0,11.0,92,0.00,,,0.00,Wunderground v.1.15,2013-06-12 14:45:00,
2013-06-12 10:55:00,74.2,71.7,29.88,WNW,285,8.0,8.0,92,0.00,,,0.00,Wunderground v.1.15,2013-06-12 14:55:00,
2013-06-12 11:00:00,74.4,71.6,29.89,NW,312,8.0,8.0,91,0.00,,,0.00,Wunderground v.1.15,2013-06-12 15:00:00,
2013-06-12 11:05:00,74.6,71.8,29.91,ENE,61,9.0,9.0,91,0.00,,,0.00,Wunderground v.1.15,2013-06-12 15:05:00,
2013-06-12 11:10:00,75.0,72.2,29.91,WNW,297,9.0,9.0,91,0.00,,,0.00,Wunderground v.1.15,2013-06-12 15:10:00,
2013-06-12 11:15:00,75.5,72.4,29.90,West,280,6.0,9.0,90,0.00,,,0.00,Wunderground v.1.15,2013-06-12 15:15:00,
2013-06-12 11:25:00,76.3,72.5,29.91,NW,316,6.0,6.0,88,0.00,,,0.00,Wunderground v.1.15,2013-06-12 15:25:00,
2013-06-12 11:30:00,77.1,72.9,29.90,NW,307,6.0,6.0,87,0.00,,,0.00,Wunderground v.1.15,2013-06-12 15:30:00,
2013-06-12 11:35:00,78.0,73.5,29.90,WNW,302,4.0,6.0,86,0.00,,,0.00,Wunderground v.1.15,2013-06-12 15:35:00,
2013-06-12 11:40:00,78.8,73.2,29.91,NNE,15,3.0,3.0,83,0.00,,,0.00,Wunderground v.1.15,2013-06-12 15:40:00,
2013-06-12 11:50:00,80.2,73.5,29.88,SW,231,1.0,3.0,80,0.00,,,0.00,Wunderground v.1.15,2013-06-12 15:50:00,
2013-06-12 11:55:00,78.8,72.8,29.89,WSW,242,3.0,7.0,82,0.00,,,0.00,Wunderground v.1.15,2013-06-12 15:55:00,
2013-06-12 12:00:00,78.4,73.2,29.87,WSW,252,6.0,9.0,84,0.00,,,0.00,Wunderground v.1.15,2013-06-12 16:00:00,
2013-06-12 12:10:00,78.4,72.8,29.85,SW,221,6.0,6.0,83,0.00,,,0.00,Wunderground v.1.15,2013-06-12 16:10:00,
2013-06-12 12:15:00,78.5,73.6,29.84,SW,233,8.0,10.0,85,0.00,,,0.00,Wunderground v.1.15,2013-06-12 16:15:00,
2013-06-12 12:20:00,78.8,73.6,29.89,WNW,293,9.0,9.0,84,0.00,,,0.00,Wunderground v.1.15,2013-06-12 16:20:00,
2013-06-12 12:30:00,78.6,73.4,29.88,West,266,8.0,8.0,84,0.00,,,0.00,Wunderground v.1.15,2013-06-12 16:30:00,
2013-06-12 12:35:00,78.6,73.7,29.88,West,278,7.0,16.0,85,0.00,,,0.00,Wunderground v.1.15,2013-06-12 16:35:00,
2013-06-12 12:40:00,78.7,73.8,29.87,West,280,5.0,16.0,85,0.00,,,0.00,Wunderground v.1.15,2013-06-12 16:40:00,
2013-06-12 12:50:00,78.6,73.4,29.86,WNW,300,6.0,6.0,84,0.00,,,0.00,Wunderground v.1.15,2013-06-12 16:50:00,
2013-06-12 12:55:00,78.8,73.9,29.86,West,262,5.0,16.0,85,0.00,,,0.00,Wunderground v.1.15,2013-06-12 16:55:00,
2013-06-12 13:05:00,78.7,73.8,29.83,WSW,242,6.0,8.0,85,0.00,,,0.00,Wunderground v.1.15,2013-06-12 17:05:00,
2013-06-12 13:10:00,78.8,73.9,29.82,East,97,5.0,5.0,85,0.00,,,0.00,Wunderground v.1.15,2013-06-12 17:10:00,
2013-06-12 13:15:00,78.9,74.0,29.82,SW,220,4.0,16.0,85,0.00,,,0.00,Wunderground v.1.15,2013-06-12 17:15:00,
2013-06-12 13:20:00,79.0,74.1,29.81,SW,229,4.0,16.0,85,0.00,,,0.00,Wunderground v.1.15,2013-06-12 17:20:00,
2013-06-12 13:25:00,79.1,73.8,29.81,WSW,242,6.0,16.0,84,0.00,,,0.00,Wunderground v.1.15,2013-06-12 17:25:00,
2013-06-12 13:30:00,79.2,74.3,29.81,WSW,242,9.0,16.0,85,0.00,,,0.00,Wunderground v.1.15,2013-06-12 17:30:00,
2013-06-12 13:40:00,79.3,74.4,29.81,WSW,249,10.0,16.0,85,0.00,,,0.00,Wunderground v.1.15,2013-06-12 17:40:00,
2013-06-12 13:45:00,79.1,73.8,29.81,WSW,252,12.0,16.0,84,0.00,,,0.00,Wunderground v.1.15,2013-06-12 17:45:00,
2013-06-12 13:55:00,79.2,74.3,29.80,WSW,257,13.0,16.0,85,0.00,,,0.00,Wunderground v.1.15,2013-06-12 17:55:00,
2013-06-12 14:00:00,79.5,74.6,29.79,WSW,246,12.0,15.0,85,0.00,,,0.00,Wunderground v.1.15,2013-06-12 18:00:00,
2013-06-12 14:10:00,79.5,74.2,29.80,West,263,11.0,13.0,84,0.00,,,0.00,Wunderground v.1.15,2013-06-12 18:10:00,
2013-06-12 14:15:00,79.7,74.4,29.80,WSW,248,11.0,13.0,84,0.00,,,0.00,Wunderground v.1.15,2013-06-12 18:15:00,
2013-06-12 14:20:00,79.6,74.3,29.77,SW,224,11.0,11.0,84,0.00,,,0.00,Wunderground v.1.15,2013-06-12 18:20:00,
2013-06-12 14:25:00,79.6,74.7,29.73,WSW,253,10.0,11.0,85,0.00,,,0.00,Wunderground v.1.15,2013-06-12 18:25:00,
2013-06-12 14:30:00,79.6,74.7,29.76,NW,307,10.0,10.0,85,0.00,,,0.00,Wunderground v.1.15,2013-06-12 18:30:00,
2013-06-12 14:35:00,79.8,75.2,29.77,West,273,9.0,13.0,86,0.00,,,0.00,Wunderground v.1.15,2013-06-12 18:35:00,
2013-06-12 14:45:00,80.0,75.1,29.76,WSW,255,9.0,15.0,85,0.00,,,0.00,Wunderground v.1.15,2013-06-12 18:45:00,
2013-06-12 14:55:00,79.8,74.9,29.75,WNW,287,12.0,13.0,85,0.00,,,0.00,Wunderground v.1.15,2013-06-12 18:55:00,
2013-06-12 15:00:00,79.9,75.0,29.78,West,281,10.0,13.0,85,0.00,,,0.00,Wunderground v.1.15,2013-06-12 19:00:00,
2013-06-12 15:05:00,80.1,74.8,29.77,WSW,245,9.0,13.0,84,0.00,,,0.00,Wunderground v.1.15,2013-06-12 19:05:00,
2013-06-12 15:10:00,80.2,74.9,29.77,WSW,254,9.0,9.0,84,0.00,,,0.00,Wunderground v.1.15,2013-06-12 19:10:00,
2013-06-12 15:20:00,80.8,75.2,29.78,WSW,248,9.0,13.0,83,0.00,,,0.00,Wunderground v.1.15,2013-06-12 19:20:00,
2013-06-12 15:25:00,81.2,75.9,29.79,WNW,284,9.0,13.0,84,0.00,,,0.00,Wunderground v.1.15,2013-06-12 19:25:00,
2013-06-12 15:30:00,81.9,76.2,29.79,WSW,254,7.0,7.0,83,0.00,,,0.00,Wunderground v.1.15,2013-06-12 19:30:00,
2013-06-12 15:35:00,81.9,75.5,29.79,WNW,295,6.0,13.0,81,0.00,,,0.00,Wunderground v.1.15,2013-06-12 19:35:00,
2013-06-12 15:40:00,82.5,75.7,29.80,ENE,65,6.0,6.0,80,0.00,,,0.00,Wunderground v.1.15,2013-06-12 19:40:00,
2013-06-12 15:50:00,83.0,76.2,29.78,WNW,287,4.0,4.0,80,0.00,,,0.00,Wunderground v.1.15,2013-06-12 19:50:00,
2013-06-12 16:00:00,83.4,75.8,29.79,West,271,4.0,6.0,78,0.00,,,0.00,Wunderground v.1.15,2013-06-12 20:00:00,
2013-06-12 16:10:00,83.8,76.2,29.80,NW,304,7.0,8.0,78,0.00,,,0.00,Wunderground v.1.15,2013-06-12 20:10:00,
2013-06-12 16:15:00,83.8,75.8,29.80,WNW,295,7.0,8.0,77,0.00,,,0.00,Wunderground v.1.15,2013-06-12 20:15:00,
2013-06-12 16:20:00,84.0,75.6,29.80,North,11,7.0,12.0,76,0.00,,,0.00,Wunderground v.1.15,2013-06-12 20:20:00,
2013-06-12 16:30:00,84.3,75.9,29.81,ENE,75,6.0,6.0,76,0.00,,,0.00,Wunderground v.1.15,2013-06-12 20:30:00,
2013-06-12 16:35:00,84.4,76.0,29.81,East,97,5.0,15.0,76,0.00,,,0.00,Wunderground v.1.15,2013-06-12 20:35:00,
2013-06-12 16:40:00,84.0,76.0,29.80,ENE,65,4.0,4.0,77,0.00,,,0.00,Wunderground v.1.15,2013-06-12 20:40:00,
2013-06-12 16:45:00,84.0,76.0,29.80,NE,49,4.0,15.0,77,0.00,,,0.00,Wunderground v.1.15,2013-06-12 20:45:00,
2013-06-12 16:55:00,84.2,76.2,29.80,NW,304,4.0,15.0,77,0.00,,,0.00,Wunderground v.1.15,2013-06-12 20:55:00,
2013-06-12 17:05:00,84.3,76.3,29.79,NW,308,3.0,4.0,77,0.00,,,0.00,Wunderground v.1.15,2013-06-12 21:05:00,
2013-06-12 17:10:00,84.5,76.1,29.79,NW,309,2.0,2.0,76,0.00,,,0.00,Wunderground v.1.15,2013-06-12 21:10:00,
2013-06-12 17:15:00,85.2,76.4,29.79,WNW,284,2.0,3.0,75,0.00,,,0.00,Wunderground v.1.15,2013-06-12 21:15:00,
2013-06-12 17:20:00,85.5,76.7,29.79,WSW,251,2.0,2.0,75,0.00,,,0.00,Wunderground v.1.15,2013-06-12 21:20:00,
2013-06-12 17:25:00,85.3,76.5,29.78,WNW,295,1.0,15.0,75,0.00,,,0.00,Wunderground v.1.15,2013-06-12 21:25:00,
2013-06-12 17:35:00,84.8,76.0,29.77,NW,304,2.0,15.0,75,0.00,,,0.00,Wunderground v.1.15,2013-06-12 21:35:00,
2013-06-12 17:40:00,84.7,76.3,29.76,NW,315,2.0,2.0,76,0.00,,,0.00,Wunderground v.1.15,2013-06-12 21:40:00,
2013-06-12 17:45:00,84.7,75.9,29.76,NW,314,1.0,15.0,75,0.00,,,0.00,Wunderground v.1.15,2013-06-12 21:45:00,
2013-06-12 17:50:00,84.7,75.9,29.76,WSW,252,0.0,15.0,75,0.00,,,0.00,Wunderground v.1.15,2013-06-12 21:50:00,
2013-06-12 18:00:00,85.0,75.8,29.75,WSW,248,2.0,4.0,74,0.00,,,0.00,Wunderground v.1.15,2013-06-12 22:00:00,
2013-06-12 18:10:00,85.0,75.4,29.74,NW,304,4.0,4.0,73,0.00,,,0.00,Wunderground v.1.15,2013-06-12 22:10:00,
2013-06-12 18:15:00,85.0,75.0,29.74,NNW,347,3.0,4.0,72,0.00,,,0.00,Wunderground v.1.15,2013-06-12 22:15:00,
2013-06-12 18:20:00,85.0,75.4,29.74,WNW,300,3.0,3.0,73,0.00,,,0.00,Wunderground v.1.15,2013-06-12 22:20:00,
2013-06-12 18:25:00,85.0,75.8,29.73,NW,305,2.0,3.0,74,0.00,,,0.00,Wunderground v.1.15,2013-06-12 22:25:00,
2013-06-12 18:30:00,84.8,75.6,29.74,WNW,298,1.0,2.0,74,0.00,,,0.00,Wunderground v.1.15,2013-06-12 22:30:00,
2013-06-12 18:35:00,84.7,75.5,29.74,WNW,299,2.0,6.0,74,0.00,,,0.00,Wunderground v.1.15,2013-06-12 22:35:00,
2013-06-12 18:45:00,85.1,75.9,29.73,WNW,298,2.0,6.0,74,0.00,,,0.00,Wunderground v.1.15,2013-06-12 22:45:00,
2013-06-12 18:50:00,85.3,75.7,29.73,NW,305,2.0,6.0,73,0.00,,,0.00,Wunderground v.1.15,2013-06-12 22:50:00,
2013-06-12 19:00:00,85.5,75.9,29.72,ENE,64,1.0,1.0,73,0.00,,,0.00,Wunderground v.1.15,2013-06-12 23:00:00,
2013-06-12 19:05:00,85.4,76.2,29.72,ENE,63,1.0,6.0,74,0.00,,,0.00,Wunderground v.1.15,2013-06-12 23:05:00,
2013-06-12 19:10:00,85.2,76.0,29.73,ENE,63,0.0,6.0,74,0.00,,,0.00,Wunderground v.1.15,2013-06-12 23:10:00,
2013-06-12 19:20:00,85.4,76.2,29.72,ENE,64,1.0,1.0,74,0.00,,,0.00,Wunderground v.1.15,2013-06-12 23:20:00,
2013-06-12 19:25:00,85.5,76.7,29.71,ENE,64,0.0,6.0,75,0.00,,,0.00,Wunderground v.1.15,2013-06-12 23:25:00,
2013-06-12 19:30:00,85.2,76.4,29.70,ENE,64,0.0,6.0,75,0.00,,,0.00,Wunderground v.1.15,2013-06-12 23:30:00,
2013-06-12 19:35:00,84.6,77.0,29.70,ENE,62,1.0,6.0,78,0.00,,,0.00,Wunderground v.1.15,2013-06-12 23:35:00,
2013-06-12 19:40:00,84.1,76.1,29.70,WNW,294,2.0,2.0,77,0.00,,,0.00,Wunderground v.1.15,2013-06-12 23:40:00,
2013-06-12 19:50:00,83.6,75.2,29.70,WSW,248,2.0,6.0,76,0.00,,,0.00,Wunderground v.1.15,2013-06-12 23:50:00,
2013-06-12 19:55:00,83.5,74.7,29.72,West,276,3.0,6.0,75,0.00,,,0.00,Wunderground v.1.15,2013-06-12 23:55:00,
2013-06-12 20:05:00,83.3,74.5,29.72,West,264,3.0,4.0,75,0.56,,,0.02,Wunderground v.1.15,2013-06-13 00:05:00,
2013-06-12 20:10:00,82.4,74.8,29.71,West,262,5.0,9.0,78,1.16,,,0.06,Wunderground v.1.15,2013-06-13 00:10:00,
2013-06-12 20:15:00,80.3,73.6,29.73,NNW,330,9.0,20.0,80,0.81,,,0.13,Wunderground v.1.15,2013-06-13 00:15:00,
2013-06-12 20:25:00,72.9,69.1,29.72,NW,310,14.0,15.0,88,0.55,,,0.41,Wunderground v.1.15,2013-06-13 00:25:00,
2013-06-12 20:30:00,73.0,68.9,29.71,NNW,338,9.0,11.0,87,0.22,,,0.43,Wunderground v.1.15,2013-06-13 00:30:00,
2013-06-12 20:35:00,74.1,68.6,29.71,NE,37,10.0,11.0,83,0.11,,,0.44,Wunderground v.1.15,2013-06-13 00:35:00,
2013-06-12 20:40:00,73.8,68.3,29.70,NE,50,7.0,7.0,83,0.06,,,0.44,Wunderground v.1.15,2013-06-13 00:40:00,
2013-06-12 20:45:00,73.7,67.9,29.69,WSW,248,3.0,7.0,82,0.04,,,0.44,Wunderground v.1.15,2013-06-13 00:45:00,
2013-06-12 20:55:00,72.6,69.2,29.68,SW,218,3.0,3.0,89,0.00,,,0.44,Wunderground v.1.15,2013-06-13 00:55:00,
2013-06-12 21:05:00,72.1,69.3,29.69,East,98,2.0,2.0,91,0.94,,,0.52,Wunderground v.1.15,2013-06-13 01:05:00,
2013-06-12 21:10:00,71.3,68.9,29.69,South,179,3.0,4.0,92,0.24,,,0.56,Wunderground v.1.15,2013-06-13 01:10:00,
2013-06-12 21:15:00,71.1,69.0,29.69,SSE,149,3.0,4.0,93,0.10,,,0.57,Wunderground v.1.15,2013-06-13 01:15:00,
2013-06-12 21:20:00,70.9,69.1,29.68,SE,135,3.0,3.0,94,0.09,,,0.57,Wunderground v.1.15,2013-06-13 01:20:00,
2013-06-12 21:25:00,70.9,69.1,29.70,SSW,204,2.0,3.0,94,0.06,,,0.58,Wunderground v.1.15,2013-06-13 01:25:00,
2013-06-12 21:30:00,70.7,68.6,29.69,East,94,2.0,3.0,93,1.74,,,0.62,Wunderground v.1.15,2013-06-13 01:30:00,
2013-06-12 21:35:00,69.9,67.2,29.67,ENE,72,5.0,10.0,91,2.97,,,0.81,Wunderground v.1.15,2013-06-13 01:35:00,
2013-06-12 21:40:00,68.8,66.7,29.68,ENE,75,9.0,9.0,93,1.01,,,0.88,Wunderground v.1.15,2013-06-13 01:40:00,
2013-06-12 21:45:00,67.9,66.4,29.71,ENE,64,8.0,9.0,95,0.72,,,0.94,Wunderground v.1.15,2013-06-13 01:45:00,
2013-06-12 21:50:00,67.6,66.7,29.73,NE,44,5.0,6.0,97,2.42,,,1.03,Wunderground v.1.15,2013-06-13 01:50:00,
2013-06-12 22:00:00,66.6,65.7,29.73,NE,56,3.0,3.0,97,1.40,,,1.38,Wunderground v.1.15,2013-06-13 02:00:00,
2013-06-12 22:10:00,66.6,66.3,29.76,West,280,5.0,7.0,99,2.14,,,1.67,Wunderground v.1.15,2013-06-13 02:10:00,
2013-06-12 22:15:00,66.6,66.3,29.74,NNW,330,7.0,7.0,99,1.53,,,1.82,Wunderground v.1.15,2013-06-13 02:15:00,
2013-06-12 22:20:00,66.7,66.4,29.72,West,280,4.0,4.0,99,1.43,,,1.94,Wunderground v.1.15,2013-06-13 02:20:00,
2013-06-12 22:25:00,66.7,66.4,29.71,SW,233,4.0,6.0,99,0.69,,,2.04,Wunderground v.1.15,2013-06-13 02:25:00,
2013-06-12 22:30:00,66.7,66.4,29.68,SSE,155,5.0,5.0,99,0.24,,,2.06,Wunderground v.1.15,2013-06-13 02:30:00,
2013-06-12 22:35:00,66.7,66.4,29.69,SE,124,5.0,7.0,99,0.23,,,2.08,Wunderground v.1.15,2013-06-13 02:35:00,
2013-06-12 22:40:00,66.7,66.7,29.69,SE,128,5.0,5.0,100,0.11,,,2.09,Wunderground v.1.15,2013-06-13 02:40:00,
2013-06-12 22:45:00,66.7,66.7,29.70,SW,219,4.0,10.0,100,0.13,,,2.10,Wunderground v.1.15,2013-06-13 02:45:00,
2013-06-12 22:50:00,66.8,66.8,29.68,SE,146,3.0,3.0,100,0.17,,,2.11,Wunderground v.1.15,2013-06-13 02:50:00,
2013-06-12 23:00:00,66.7,66.7,29.70,SSE,156,2.0,10.0,100,0.07,,,2.12,Wunderground v.1.15,2013-06-13 03:00:00,
2013-06-12 23:05:00,66.7,66.7,29.68,SSE,149,3.0,10.0,100,0.07,,,2.13,Wunderground v.1.15,2013-06-13 03:05:00,
2013-06-12 23:10:00,66.8,66.8,29.70,ESE,117,4.0,4.0,100,0.10,,,2.14,Wunderground v.1.15,2013-06-13 03:10:00,
2013-06-12 23:15:00,66.9,66.9,29.71,West,264,4.0,10.0,100,0.07,,,2.14,Wunderground v.1.15,2013-06-13 03:15:00,
2013-06-12 23:20:00,66.9,66.9,29.68,WSW,252,5.0,10.0,100,0.05,,,2.15,Wunderground v.1.15,2013-06-13 03:20:00,
2013-06-12 23:25:00,66.8,66.8,29.66,WSW,253,6.0,10.0,100,0.05,,,2.15,Wunderground v.1.15,2013-06-13 03:25:00,
2013-06-12 23:30:00,66.8,66.8,29.67,WSW,250,7.0,10.0,100,0.07,,,2.16,Wunderground v.1.15,2013-06-13 03:30:00,
2013-06-12 23:35:00,66.8,66.8,29.65,WSW,246,9.0,11.0,100,0.07,,,2.16,Wunderground v.1.15,2013-06-13 03:35:00,
2013-06-12 23:40:00,66.8,66.8,29.60,South,190,9.0,9.0,100,0.08,,,2.17,Wunderground v.1.15,2013-06-13 03:40:00,
2013-06-12 23:50:00,67.0,67.0,29.67,West,272,9.0,10.0,100,0.05,,,2.18,Wunderground v.1.15,2013-06-13 03:50:00,
2013-06-12 23:55:00,67.0,67.0,29.68,WNW,298,11.0,11.0,100,0.05,,,2.18,Wunderground v.1.15,2013-06-13 03:55:00,